Time;durP1;ratioP1;P1;durP2;ratioP2;P2;SDS_P1;SDS_P2;PMS_P1;PMS_P2;Temp;Humidity;BMP_temperature;BMP_pressure;BME280_temperature;BME280_humidity;BME280_pressure;Samples;Min_cycle;Max_cycle;Signal;HPM_P1;HPM_P2
2022/07/25 00:00:49;;;;;;;;;;;;;;;15.61;65.15;99774.91;431400;1271;141892;-70
2022/07/25 00:10:56;;;;;;;4.10;3.60;;;;;;;15.54;65.53;99771.90;430717;1271;129503;-70
2022/07/25 00:21:01;;;;;;;7.00;4.60;;;;;;;15.31;65.79;99770.41;431497;1271;142136;-69
2022/07/25 00:31:08;;;;;;;5.80;4.40;;;;;;;15.01;66.46;99767.52;431184;1271;141798;-68
2022/07/25 00:41:13;;;;;;;4.50;4.10;;;;;;;14.84;66.81;99768.34;431455;1271;141912;-68
2022/07/25 00:51:19;;;;;;;4.40;4.10;;;;;;;14.73;66.82;99763.48;431261;1271;143227;-70
2022/07/25 01:01:25;;;;;;;5.30;4.40;;;;;;;14.78;66.89;99756.29;431324;1271;143711;-68
2022/07/25 01:11:31;;;;;;;8.90;4.80;;;;;;;14.65;67.39;99748.77;431351;1270;141317;-70
2022/07/25 01:21:39;;;;;;;7.50;4.80;;;;;;;14.32;67.73;99755.77;431625;1271;152931;-71
2022/07/25 01:31:45;;;;;;;4.70;4.30;;;;;;;14.04;68.21;99755.39;430771;1271;141740;-69
2022/07/25 01:41:51;;;;;;;5.60;5.20;;;;;;;13.82;68.70;99753.67;431552;1271;148667;-68
2022/07/25 01:51:57;;;;;;;5.50;5.00;;;;;;;13.67;69.23;99747.59;430864;1273;142158;-69
2022/07/25 02:02:03;;;;;;;5.50;4.20;;;;;;;13.53;69.81;99739.48;431709;1270;142685;-69
2022/07/25 02:12:10;;;;;;;6.60;4.90;;;;;;;13.43;69.83;99737.89;431727;1270;146628;-70
2022/07/25 02:22:16;;;;;;;5.20;4.70;;;;;;;13.39;69.90;99728.69;432379;1270;141652;-69
2022/07/25 02:32:22;;;;;;;5.10;4.70;;;;;;;13.40;70.23;99719.81;430995;1270;142383;-71
2022/07/25 02:42:27;;;;;;;5.70;5.20;;;;;;;13.26;70.41;99721.35;432043;1270;143920;-69
2022/07/25 02:52:33;;;;;;;5.60;5.00;;;;;;;13.22;70.92;99730.42;431291;1270;141973;-70
2022/07/25 03:02:40;;;;;;;7.30;5.50;;;;;;;13.26;71.02;99722.20;431415;1270;142638;-68
2022/07/25 03:12:46;;;;;;;5.50;5.00;;;;;;;13.32;71.07;99711.09;432168;1270;143067;-71
2022/07/25 03:22:52;;;;;;;8.00;5.40;;;;;;;13.63;71.01;99721.45;430526;1271;146038;-69
2022/07/25 03:32:58;;;;;;;5.30;4.80;;;;;;;14.07;70.49;99722.56;431423;1271;141939;-70
2022/07/25 03:43:04;;;;;;;10.70;5.40;;;;;;;14.22;70.38;99728.70;431132;1271;143278;-70
2022/07/25 03:53:10;;;;;;;7.20;4.50;;;;;;;14.42;70.08;99728.75;431278;1271;143136;-69
2022/07/25 04:03:16;;;;;;;6.30;5.70;;;;;;;14.78;70.00;99739.35;431372;1271;143491;-70
2022/07/25 04:13:21;;;;;;;7.30;5.70;;;;;;;15.22;69.91;99735.11;431116;1271;142761;-70
2022/07/25 04:23:28;;;;;;;6.10;4.20;;;;;;;19.25;68.34;99716.52;430406;1270;142567;-70
2022/07/25 04:33:36;;;;;;;4.20;3.20;;;;;;;27.82;56.68;99699.80;431121;1271;142629;-69
2022/07/25 04:43:42;;;;;;;2.80;2.60;;;;;;;32.85;46.19;99697.00;430836;1270;141433;-69
2022/07/25 04:53:53;;;;;;;5.10;3.10;;;;;;;33.90;40.60;99695.24;430505;1273;142081;-67
2022/07/25 05:03:59;;;;;;;3.60;3.10;;;;;;;37.64;35.88;99687.17;430916;1271;181557;-67
2022/07/25 05:14:05;;;;;;;2.40;2.20;;;;;;;40.68;31.38;99675.92;430710;1270;141397;-67
2022/07/25 05:24:11;;;;;;;4.90;1.60;;;;;;;43.58;27.33;99664.28;431723;1270;141300;-68
2022/07/25 05:34:17;;;;;;;2.40;1.70;;;;;;;45.56;24.77;99646.10;430842;1271;141931;-68
2022/07/25 05:44:23;;;;;;;1.60;1.20;;;;;;;47.22;21.85;99641.08;432505;1270;141258;-68
2022/07/25 05:54:29;;;;;;;2.80;1.60;;;;;;;47.87;20.26;99635.48;439143;1271;142854;-68
2022/07/25 06:04:34;;;;;;;1.20;0.80;;;;;;;48.86;18.66;99620.48;446632;1271;142183;-68
2022/07/25 06:14:40;;;;;;;1.40;1.30;;;;;;;50.90;17.43;99618.77;437230;1270;141219;-70
2022/07/25 06:24:47;;;;;;;1.80;1.30;;;;;;;51.50;15.93;99619.07;431318;1271;142042;-68
2022/07/25 06:34:53;;;;;;;1.80;1.60;;;;;;;51.64;15.46;99614.29;430461;1273;142450;-69
2022/07/25 06:44:59;;;;;;;3.20;3.00;;;;;;;53.79;14.41;99604.59;432013;1271;142346;-69
2022/07/25 06:55:07;;;;;;;3.60;3.30;;;;;;;54.91;13.19;99586.70;431757;1273;142332;-70
2022/07/25 07:05:13;;;;;;;4.40;4.20;;;;;;;55.72;12.51;99583.06;431151;1271;145036;-68
2022/07/25 07:15:20;;;;;;;5.90;5.70;;;;;;;55.64;12.02;99576.66;431281;1273;146842;-67
2022/07/25 07:25:26;;;;;;;6.20;5.80;;;;;;;53.80;12.03;99574.21;431884;1270;141598;-67
2022/07/25 07:35:33;;;;;;;5.90;5.70;;;;;;;53.97;12.07;99568.17;431569;1270;192248;-73
2022/07/25 07:45:41;;;;;;;7.80;7.30;;;;;;;53.60;11.75;99555.89;432171;1271;141272;-67
2022/07/25 07:55:53;;;;;;;5.80;5.50;;;;;;;52.18;11.94;99540.83;431083;1270;142301;-68
2022/07/25 08:06:00;;;;;;;1.60;1.60;;;;;;;53.05;11.68;99535.05;431060;1271;140931;-68
2022/07/25 08:16:07;;;;;;;2.90;1.10;;;;;;;48.55;12.80;99521.92;431684;1270;141591;-68
2022/07/25 08:26:14;;;;;;;2.30;1.20;;;;;;;41.00;16.39;99519.58;431301;1271;141511;-68
2022/07/25 08:36:20;;;;;;;2.80;1.10;;;;;;;36.62;19.71;99521.80;431675;1270;142522;-69
2022/07/25 08:46:28;;;;;;;3.00;1.40;;;;;;;34.98;21.53;99510.52;431624;1270;142917;-68
2022/07/25 08:56:34;;;;;;;1.00;0.90;;;;;;;33.92;22.77;99511.20;431271;1273;142137;-67
2022/07/25 09:06:51;;;;;;;2.50;1.90;;;;;;;33.75;23.07;99506.50;431660;1271;140613;-67
2022/07/25 09:16:57;;;;;;;1.50;1.30;;;;;;;32.75;24.12;99501.95;431000;1270;141721;-68
2022/07/25 09:27:08;;;;;;;;;;;;;;;31.81;24.78;99500.65;432252;1270;141494;-69
2022/07/25 09:37:15;;;;;;;2.30;1.40;;;;;;;31.76;25.47;99490.84;431501;1271;129438;-69
2022/07/25 09:47:22;;;;;;;1.60;1.50;;;;;;;31.76;25.36;99480.91;431201;1270;145671;-70
2022/07/25 09:57:28;;;;;;;1.10;1.00;;;;;;;31.42;25.73;99468.08;432000;1269;140165;-69
2022/07/25 10:07:39;;;;;;;1.30;1.00;;;;;;;30.68;26.41;99453.13;430586;1271;141498;-68
2022/07/25 10:17:45;;;;;;;2.30;1.30;;;;;;;30.04;27.01;99446.87;431016;1273;142509;-69
2022/07/25 10:27:59;;;;;;;1.70;1.00;;;;;;;29.18;28.02;99438.23;431347;1272;141895;-68
2022/07/25 10:38:06;;;;;;;2.60;1.30;;;;;;;28.73;28.22;99427.92;431359;1273;143455;-68
2022/07/25 10:48:21;;;;;;;2.40;1.10;;;;;;;28.81;28.93;99422.92;431010;1273;141778;-68
2022/07/25 10:58:26;;;;;;;1.00;0.90;;;;;;;28.56;28.88;99407.33;431974;1271;141319;-69
2022/07/25 11:08:36;;;;;;;1.50;1.20;;;;;;;28.44;29.09;99402.16;431151;1271;141528;-70
2022/07/25 11:18:42;;;;;;;2.40;1.30;;;;;;;28.17;29.24;99391.66;431636;1270;142322;-71
2022/07/25 11:28:50;;;;;;;1.60;1.50;;;;;;;27.94;29.49;99378.44;430688;1270;371347;-69
2022/07/25 11:38:56;;;;;;;3.50;1.10;;;;;;;28.06;30.08;99367.01;431026;1273;141196;-70
2022/07/25 11:49:07;;;;;;;2.90;1.50;;;;;;;28.35;30.00;99350.24;431466;1271;141894;-69
2022/07/25 11:59:14;;;;;;;1.90;0.90;;;;;;;28.42;29.66;99343.98;431280;1270;140566;-69
2022/07/25 12:09:22;;;;;;;0.90;0.90;;;;;;;28.59;29.75;99325.34;431715;1271;141782;-70
2022/07/25 12:19:27;;;;;;;1.40;0.90;;;;;;;28.52;29.53;99310.12;432270;1271;141552;-70
2022/07/25 12:29:33;;;;;;;8.50;1.60;;;;;;;28.51;29.31;99298.78;431941;1270;141106;-69
2022/07/25 12:39:39;;;;;;;1.20;0.70;;;;;;;28.66;29.19;99286.41;431904;1271;142181;-70
2022/07/25 12:49:45;;;;;;;0.80;0.70;;;;;;;28.54;28.90;99278.73;431221;1270;142345;-70
2022/07/25 12:59:51;;;;;;;1.20;0.90;;;;;;;28.55;29.38;99263.35;431784;1270;142302;-70
2022/07/25 13:09:57;;;;;;;0.90;0.90;;;;;;;28.69;29.23;99250.60;431606;1271;140940;-69
2022/07/25 13:20:03;;;;;;;8.00;1.00;;;;;;;28.56;28.98;99235.10;430904;1270;142806;-69
2022/07/25 13:30:13;;;;;;;1.50;1.40;;;;;;;28.43;28.95;99224.16;432329;1271;143356;-71
2022/07/25 13:40:20;;;;;;;4.50;1.20;;;;;;;28.30;28.84;99219.65;432112;1271;140527;-70
2022/07/25 13:50:26;;;;;;;1.20;1.10;;;;;;;28.34;29.23;99201.48;431247;1270;141050;-70
2022/07/25 14:00:32;;;;;;;1.70;0.60;;;;;;;28.43;29.08;99189.47;432391;1270;141526;-69
2022/07/25 14:10:38;;;;;;;1.20;0.90;;;;;;;28.44;28.79;99169.42;431708;1270;142643;-69
2022/07/25 14:20:45;;;;;;;4.30;0.80;;;;;;;28.40;28.73;99154.58;431709;1270;141281;-70
2022/07/25 14:30:51;;;;;;;3.00;0.80;;;;;;;28.48;28.58;99153.59;431545;1270;142290;-70
2022/07/25 14:40:57;;;;;;;0.90;0.80;;;;;;;28.58;28.68;99140.01;430609;1270;142589;-69
2022/07/25 14:51:02;;;;;;;1.20;0.90;;;;;;;28.54;28.38;99120.91;431104;1270;140712;-69
2022/07/25 15:01:10;;;;;;;1.70;0.80;;;;;;;28.51;28.66;99107.12;437168;1270;141163;-70
2022/07/25 15:11:16;;;;;;;1.20;0.70;;;;;;;28.60;28.76;99096.98;432991;1270;141197;-69
2022/07/25 15:21:22;;;;;;;6.90;1.30;;;;;;;28.65;28.75;99086.58;440027;1269;142011;-66
2022/07/25 15:31:28;;;;;;;1.60;0.60;;;;;;;28.64;28.60;99082.67;433056;1270;141297;-69
2022/07/25 15:41:34;;;;;;;0.70;0.60;;;;;;;28.68;28.69;99067.79;431992;1270;141570;-68
2022/07/25 15:51:40;;;;;;;2.30;1.00;;;;;;;28.69;28.93;99060.00;431513;1271;141292;-69
2022/07/25 16:01:45;;;;;;;2.10;1.10;;;;;;;28.64;28.94;99043.13;431007;1270;141929;-70
2022/07/25 16:11:51;;;;;;;2.50;1.20;;;;;;;28.65;28.96;99036.84;431593;1270;141285;-69
2022/07/25 16:21:57;;;;;;;2.30;1.10;;;;;;;28.60;28.90;99024.52;430791;1271;140574;-67
2022/07/25 16:32:03;;;;;;;3.60;1.10;;;;;;;28.51;29.32;99019.80;430187;1273;141708;-67
2022/07/25 16:42:09;;;;;;;3.10;1.80;;;;;;;28.43;29.37;99014.73;431344;1270;142761;-69
2022/07/25 16:52:15;;;;;;;1.70;1.60;;;;;;;28.34;29.41;99013.77;431683;1270;141654;-70
2022/07/25 17:02:21;;;;;;;1.60;1.40;;;;;;;28.21;29.74;99010.66;430711;1270;141786;-70
2022/07/25 17:12:33;;;;;;;3.20;1.20;;;;;;;28.13;30.00;99008.41;432540;1270;140444;-71
2022/07/25 17:22:39;;;;;;;1.40;1.30;;;;;;;29.28;29.73;99006.89;431332;1270;141901;-70
2022/07/25 17:32:45;;;;;;;1.80;1.10;;;;;;;28.80;29.80;98996.38;431548;1270;141688;-71
2022/07/25 17:42:51;;;;;;;3.10;1.00;;;;;;;28.19;30.77;98986.80;431657;1270;141614;-68
2022/07/25 17:52:58;;;;;;;5.10;1.30;;;;;;;27.66;31.25;98980.45;430932;1270;141954;-69
2022/07/25 18:03:05;;;;;;;1.00;0.80;;;;;;;27.15;32.13;98967.05;431415;1270;141766;-67
2022/07/25 18:13:11;;;;;;;1.20;1.10;;;;;;;26.74;32.83;98962.27;431475;1270;142760;-68
2022/07/25 18:23:17;;;;;;;2.90;1.20;;;;;;;26.20;33.57;98957.95;432397;1270;141766;-67
2022/07/25 18:33:24;;;;;;;1.30;0.80;;;;;;;25.70;34.40;98952.19;431676;1270;142551;-68
2022/07/25 18:43:31;;;;;;;0.90;0.90;;;;;;;25.19;35.37;98940.46;431145;1270;141586;-67
2022/07/25 18:53:37;;;;;;;2.20;1.10;;;;;;;24.70;36.20;98945.51;430432;1271;195495;-68
2022/07/25 19:03:43;;;;;;;1.50;1.10;;;;;;;24.28;36.92;98942.98;432129;1269;141808;-68
2022/07/25 19:13:49;;;;;;;3.40;1.10;;;;;;;23.88;37.74;98942.98;430745;1270;141008;-68
2022/07/25 19:23:56;;;;;;;1.40;1.30;;;;;;;23.47;38.54;98935.20;431778;1270;141700;-68
2022/07/25 19:34:02;;;;;;;8.00;2.40;;;;;;;23.12;39.16;98934.85;431889;1270;142540;-68
2022/07/25 19:44:08;;;;;;;1.80;1.40;;;;;;;22.78;40.09;98934.48;430775;1270;142989;-69
2022/07/25 19:54:15;;;;;;;3.20;1.80;;;;;;;22.47;40.60;98938.80;431888;1270;141894;-69
2022/07/25 20:04:21;;;;;;;5.10;1.60;;;;;;;22.21;41.25;98938.98;434514;1269;141166;-68
2022/07/25 20:14:27;;;;;;;5.90;1.80;;;;;;;21.94;41.84;98946.52;430084;1271;142270;-67
2022/07/25 20:24:32;;;;;;;8.50;2.10;;;;;;;21.69;42.31;98948.81;431850;1270;141243;-68
2022/07/25 20:34:39;;;;;;;3.30;2.20;;;;;;;21.49;42.88;98938.85;431042;1270;194744;-68
2022/07/25 20:44:45;;;;;;;2.60;2.10;;;;;;;21.31;43.48;98933.98;442806;1270;143695;-68
2022/07/25 20:54:51;;;;;;;6.00;2.20;;;;;;;21.15;43.88;98936.67;437792;1269;141644;-69
2022/07/25 21:04:56;;;;;;;2.20;1.90;;;;;;;20.96;44.47;98948.73;430850;1270;140885;-68
2022/07/25 21:15:03;;;;;;;6.70;2.30;;;;;;;20.78;45.19;98951.85;431746;1270;142438;-68
2022/07/25 21:25:10;;;;;;;3.80;2.10;;;;;;;20.56;45.75;98957.75;431044;1271;141813;-69
2022/07/25 21:35:18;;;;;;;2.80;2.30;;;;;;;20.39;46.42;98955.78;430792;1270;141852;-68
2022/07/25 21:45:24;;;;;;;4.70;2.20;;;;;;;20.22;46.99;98941.75;431402;1270;141888;-67
2022/07/25 21:55:30;;;;;;;6.60;2.50;;;;;;;20.06;47.73;98935.42;431642;1270;141614;-68
2022/07/25 22:05:36;;;;;;;4.20;2.50;;;;;;;19.92;48.19;98922.36;431511;1270;211395;-69
2022/07/25 22:15:43;;;;;;;3.70;2.60;;;;;;;19.84;48.70;98914.73;431857;1270;142696;-73
2022/07/25 22:25:49;;;;;;;3.40;2.60;;;;;;;19.77;49.12;98895.83;430324;1270;142220;-67
2022/07/25 22:35:54;;;;;;;4.40;2.30;;;;;;;19.67;49.67;98880.88;431513;1270;142046;-69
2022/07/25 22:46:00;;;;;;;6.60;2.50;;;;;;;19.54;49.94;98878.14;431918;1268;141789;-68
2022/07/25 22:56:07;;;;;;;4.90;2.80;;;;;;;19.35;50.62;98859.06;431033;1270;141943;-68
2022/07/25 23:06:13;;;;;;;5.10;3.00;;;;;;;19.14;51.30;98862.61;431630;1270;141731;-68
2022/07/25 23:16:19;;;;;;;5.30;3.30;;;;;;;18.95;51.76;98872.95;431910;1270;140881;-67
2022/07/25 23:26:25;;;;;;;3.50;2.70;;;;;;;18.80;52.28;98840.95;430730;1271;433588;-66
2022/07/25 23:36:31;;;;;;;4.00;2.80;;;;;;;18.69;52.53;98838.90;431807;1270;142018;-68
2022/07/25 23:46:37;;;;;;;2.80;2.30;;;;;;;18.56;52.90;98838.59;430892;1270;143809;-69
2022/07/25 23:56:43;;;;;;;4.10;2.50;;;;;;;18.45;53.37;98826.48;431643;1270;143017;-69
